createdAt,value
2019-02-14T00:01:57.936Z,1.07
2019-02-14T00:04:47.642Z,0.98
2019-02-14T00:07:37.169Z,0.89
2019-02-14T00:10:26.428Z,0.82
2019-02-14T00:13:15.618Z,0.82
2019-02-14T00:16:04.829Z,0.82
2019-02-14T00:18:54.380Z,0.82
2019-02-14T00:21:44.234Z,0.82
2019-02-14T00:24:33.572Z,0.81
2019-02-14T00:27:23.073Z,0.81
2019-02-14T00:30:12.646Z,0.82
2019-02-14T00:33:01.978Z,0.81
2019-02-14T00:35:51.328Z,0.78
2019-02-14T00:38:40.694Z,0.79
2019-02-14T00:41:30.150Z,0.78
2019-02-14T00:44:19.644Z,0.81
2019-02-14T00:47:09.017Z,0.84
2019-02-14T00:49:58.326Z,0.87
2019-02-14T00:52:47.807Z,0.91
2019-02-14T00:55:37.123Z,0.95
2019-02-14T00:58:27.114Z,0.97
2019-02-14T01:01:16.747Z,1.01
2019-02-14T01:04:06.125Z,1.03
2019-02-14T01:06:55.693Z,1.05
2019-02-14T01:09:44.978Z,1.08
2019-02-14T01:12:34.280Z,1.11
2019-02-14T01:15:25.514Z,1.18
2019-02-14T01:18:14.829Z,1.19
2019-02-14T01:21:04.134Z,1.19
2019-02-14T01:23:53.299Z,1.22
2019-02-14T01:26:42.832Z,1.22
2019-02-14T01:29:32.083Z,1.25
2019-02-14T01:32:21.308Z,1.27
2019-02-14T01:35:10.893Z,1.24
2019-02-14T01:38:00.514Z,1.32
2019-02-14T01:40:51.840Z,1.28
2019-02-14T01:43:41.137Z,1.22
2019-02-14T01:46:30.397Z,1.18
2019-02-14T01:49:19.957Z,1.17
2019-02-14T01:52:09.469Z,1.17
2019-02-14T01:54:58.927Z,1.16
2019-02-14T01:57:48.639Z,1.15
2019-02-14T02:00:38.754Z,1.16
2019-02-14T02:03:28.314Z,1.18
2019-02-14T02:06:17.581Z,1.18
2019-02-14T02:09:07.890Z,1.24
2019-02-14T02:11:57.444Z,1.22
2019-02-14T02:14:46.874Z,1.23
2019-02-14T02:17:36.483Z,1.23
2019-02-14T02:20:33.182Z,1.22
2019-02-14T02:23:17.585Z,1.24
2019-02-14T02:26:06.845Z,1.28
2019-02-14T02:28:56.177Z,1.31
2019-02-14T02:31:45.761Z,1.33
2019-02-14T02:34:34.977Z,1.36
2019-02-14T02:37:24.659Z,1.37
2019-02-14T02:40:14.040Z,1.38
2019-02-14T02:43:03.585Z,1.37
2019-02-14T02:45:52.797Z,1.38
2019-02-14T02:48:42.100Z,1.39
2019-02-14T02:51:31.860Z,1.41
2019-02-14T02:54:21.468Z,1.41
2019-02-14T02:57:10.834Z,1.48
2019-02-14T03:00:00.301Z,1.45
2019-02-14T03:02:49.809Z,1.46
2019-02-14T03:05:39.100Z,1.47
2019-02-14T03:08:28.278Z,1.47
2019-02-14T03:11:17.893Z,1.47
2019-02-14T03:14:07.430Z,1.50
2019-02-14T03:16:57.041Z,1.49
2019-02-14T03:19:46.210Z,1.50
2019-02-14T03:22:35.473Z,1.49
2019-02-14T03:25:25.045Z,1.52
2019-02-14T03:28:14.614Z,1.53
2019-02-14T03:31:04.155Z,1.54
2019-02-14T03:33:53.615Z,1.58
2019-02-14T03:36:43.122Z,1.67
2019-02-14T03:39:32.504Z,1.67
2019-02-14T03:42:21.859Z,1.66
2019-02-14T03:45:14.419Z,1.66
2019-02-14T03:48:05.351Z,1.68
2019-02-14T03:50:54.898Z,1.64
2019-02-14T03:53:44.472Z,1.67
2019-02-14T03:56:34.229Z,1.68
2019-02-14T03:59:23.506Z,1.63
2019-02-14T04:02:13.014Z,1.65
2019-02-14T04:05:03.381Z,1.70
2019-02-14T04:07:53.043Z,1.71
2019-02-14T04:10:42.622Z,1.73
2019-02-14T04:13:32.342Z,1.73
2019-02-14T04:16:21.845Z,1.78
2019-02-14T04:19:11.511Z,1.77
2019-02-14T04:22:00.770Z,1.79
2019-02-14T04:24:50.098Z,1.82
2019-02-14T04:27:39.352Z,1.85
2019-02-14T04:30:28.596Z,1.84
2019-02-14T04:33:18.006Z,1.86
2019-02-14T04:36:07.711Z,1.86
2019-02-14T04:38:57.269Z,1.87
2019-02-14T04:41:46.530Z,1.88
2019-02-14T04:44:35.797Z,1.88
2019-02-14T04:47:25.028Z,1.90
2019-02-14T04:50:14.328Z,1.93
2019-02-14T04:53:03.732Z,1.95
2019-02-14T04:55:53.332Z,1.96
2019-02-14T04:58:42.619Z,1.99
2019-02-14T05:01:32.286Z,2.01
2019-02-14T05:04:21.514Z,2.04
2019-02-14T05:07:11.197Z,2.05
2019-02-14T05:10:00.848Z,2.08
2019-02-14T05:12:50.472Z,2.10
2019-02-14T05:15:39.763Z,2.15
2019-02-14T05:18:29.324Z,2.24
2019-02-14T05:21:18.790Z,2.24
2019-02-14T05:24:08.039Z,2.23
2019-02-14T05:26:57.651Z,2.24
2019-02-14T05:29:47.372Z,2.22
2019-02-14T05:32:36.528Z,2.22
2019-02-14T05:35:25.871Z,2.20
2019-02-14T05:38:15.405Z,2.20
2019-02-14T05:41:05.049Z,2.14
2019-02-14T05:43:54.609Z,2.13
2019-02-14T05:46:45.649Z,2.11
2019-02-14T05:49:35.127Z,2.07
2019-02-14T05:52:24.416Z,2.05
2019-02-14T05:55:14.073Z,2.03
2019-02-14T05:58:03.428Z,2.03
2019-02-14T06:00:52.922Z,2.09
2019-02-14T06:03:42.230Z,2.12
2019-02-14T06:06:31.818Z,2.10
2019-02-14T06:09:21.296Z,2.13
2019-02-14T06:12:10.808Z,2.17
2019-02-14T06:15:00.449Z,2.16
2019-02-14T06:17:49.999Z,2.10
2019-02-14T06:20:39.730Z,2.14
2019-02-14T06:23:30.172Z,2.26
2019-02-14T06:26:19.569Z,2.16
2019-02-14T06:29:09.552Z,2.21
2019-02-14T06:31:58.821Z,2.23
2019-02-14T06:34:49.542Z,2.26
2019-02-14T06:37:38.881Z,2.21
2019-02-14T06:40:28.203Z,2.24
2019-02-14T06:43:17.515Z,2.26
2019-02-14T06:46:07.178Z,2.29
2019-02-14T06:48:56.944Z,2.32
2019-02-14T06:51:46.232Z,2.41
2019-02-14T06:54:35.775Z,2.45
2019-02-14T06:57:25.404Z,2.49
2019-02-14T07:00:15.768Z,2.54
2019-02-14T07:03:05.471Z,2.60
2019-02-14T07:05:54.961Z,2.66
2019-02-14T07:08:44.776Z,2.74
2019-02-14T07:11:34.316Z,2.82
2019-02-14T07:14:23.535Z,2.88
2019-02-14T07:17:13.444Z,2.91
2019-02-14T07:20:03.048Z,2.91
2019-02-14T07:22:52.706Z,2.96
2019-02-14T07:25:41.997Z,3.02
2019-02-14T07:28:31.702Z,3.01
2019-02-14T07:31:21.142Z,3.04
2019-02-14T07:34:10.645Z,3.11
2019-02-14T07:36:59.931Z,3.16
2019-02-14T07:39:49.132Z,3.21
2019-02-14T07:42:38.443Z,3.29
2019-02-14T07:45:28.186Z,3.34
2019-02-14T07:48:17.548Z,3.26
2019-02-14T07:51:07.088Z,3.47
2019-02-14T07:54:01.534Z,3.54
2019-02-14T07:56:52.548Z,3.62
2019-02-14T07:59:41.882Z,3.70
2019-02-14T08:02:31.148Z,3.75
2019-02-14T08:05:20.417Z,3.78
2019-02-14T08:08:10.021Z,3.84
2019-02-14T08:10:59.720Z,3.89
2019-02-14T08:13:49.363Z,3.92
2019-02-14T08:16:38.595Z,3.94
2019-02-14T08:19:28.221Z,4.03
2019-02-14T08:22:17.786Z,4.06
2019-02-14T08:25:08.443Z,4.12
2019-02-14T08:27:57.611Z,4.18
2019-02-14T08:30:47.199Z,4.24
2019-02-14T08:33:36.858Z,4.28
2019-02-14T08:36:26.044Z,4.40
2019-02-14T08:39:15.391Z,4.52
2019-02-14T08:42:04.930Z,4.58
2019-02-14T08:44:54.161Z,4.62
2019-02-14T08:47:43.757Z,4.74
2019-02-14T08:50:33.224Z,4.85
2019-02-14T08:53:22.780Z,4.85
2019-02-14T08:56:12.067Z,4.89
2019-02-14T08:59:01.671Z,4.90
2019-02-14T09:01:51.440Z,4.87
2019-02-14T09:04:40.773Z,4.88
2019-02-14T09:07:30.439Z,4.95
2019-02-14T09:10:20.151Z,5.11
2019-02-14T09:13:17.017Z,5.18
2019-02-14T09:16:01.104Z,5.07
2019-02-14T09:18:50.691Z,5.19
2019-02-14T09:21:39.997Z,5.27
2019-02-14T09:24:29.290Z,5.42
2019-02-14T09:27:18.671Z,5.50
2019-02-14T09:30:08.285Z,5.60
2019-02-14T09:32:57.899Z,5.81
2019-02-14T09:35:47.184Z,6.02
2019-02-14T09:38:36.749Z,6.27
2019-02-14T09:41:25.999Z,6.43
2019-02-14T09:44:15.506Z,6.56
2019-02-14T09:47:05.067Z,6.65
2019-02-14T09:49:54.470Z,6.84
2019-02-14T09:52:43.902Z,6.98
2019-02-14T09:55:33.208Z,6.99
2019-02-14T09:58:22.801Z,6.97
2019-02-14T10:01:12.199Z,6.93
2019-02-14T10:04:01.762Z,7.02
2019-02-14T10:06:51.470Z,7.17
2019-02-14T10:09:40.738Z,7.38
2019-02-14T10:12:30.336Z,7.51
2019-02-14T10:15:19.877Z,7.69
2019-02-14T10:18:09.161Z,7.76
2019-02-14T10:20:58.740Z,7.74
2019-02-14T10:23:48.394Z,7.84
2019-02-14T10:26:37.945Z,7.95
2019-02-14T10:29:28.074Z,8.12
2019-02-14T10:32:17.407Z,8.09
2019-02-14T10:35:07.418Z,8.16
2019-02-14T10:37:56.865Z,8.24
2019-02-14T10:40:46.166Z,8.15
2019-02-14T10:43:36.031Z,8.13
2019-02-14T10:46:25.863Z,8.11
2019-02-14T10:49:15.472Z,8.18
2019-02-14T10:52:05.090Z,8.32
2019-02-14T10:54:54.467Z,8.42
2019-02-14T10:57:43.783Z,8.41
2019-02-14T11:00:33.216Z,8.38
2019-02-14T11:03:22.696Z,8.38
2019-02-14T11:06:12.351Z,8.30
2019-02-14T11:09:01.797Z,8.19
2019-02-14T11:11:51.165Z,8.27
2019-02-14T11:14:40.690Z,8.20
2019-02-14T11:17:29.955Z,8.10
2019-02-14T11:20:20.390Z,8.11
2019-02-14T11:23:10.370Z,8.14
2019-02-14T11:26:00.079Z,8.11
2019-02-14T11:28:49.321Z,8.16
2019-02-14T11:31:38.604Z,8.23
2019-02-14T11:34:28.190Z,8.07
2019-02-14T11:37:17.487Z,8.12
2019-02-14T11:40:07.773Z,8.21
2019-02-14T11:42:57.468Z,8.30
2019-02-14T11:45:47.161Z,8.33
2019-02-14T11:48:36.438Z,8.36
2019-02-14T11:51:25.982Z,8.42
2019-02-14T11:54:15.704Z,8.38
2019-02-14T11:57:05.430Z,8.46
2019-02-14T11:59:55.052Z,8.58
2019-02-14T12:02:44.486Z,8.65
2019-02-14T12:05:33.845Z,8.75
2019-02-14T12:08:23.315Z,8.79
2019-02-14T12:11:13.733Z,8.84
2019-02-14T12:14:03.394Z,8.83
2019-02-14T12:16:52.979Z,8.75
2019-02-14T12:19:42.450Z,8.87
2019-02-14T12:22:33.760Z,9.02
2019-02-14T12:25:23.642Z,9.02
2019-02-14T12:28:12.905Z,8.92
2019-02-14T12:31:02.222Z,8.67
2019-02-14T12:33:51.513Z,8.58
2019-02-14T12:36:41.500Z,8.51
2019-02-14T12:39:31.103Z,8.52
2019-02-14T12:42:20.478Z,8.31
2019-02-14T12:45:20.371Z,8.25
2019-02-14T12:48:03.518Z,8.48
2019-02-14T12:50:52.812Z,8.72
2019-02-14T12:53:42.075Z,9.04
2019-02-14T12:56:31.425Z,9.26
2019-02-14T12:59:20.754Z,9.45
2019-02-14T13:02:10.347Z,9.50
2019-02-14T13:05:00.024Z,9.50
2019-02-14T13:07:49.791Z,9.56
2019-02-14T13:10:39.021Z,9.57
2019-02-14T13:13:28.296Z,9.58
2019-02-14T13:16:17.568Z,9.55
2019-02-14T13:19:06.899Z,9.45
2019-02-14T13:21:56.521Z,9.46
2019-02-14T13:24:46.260Z,9.50
2019-02-14T13:27:35.605Z,9.53
2019-02-14T13:30:24.881Z,9.52
2019-02-14T13:33:14.288Z,9.52
2019-02-14T13:36:03.572Z,9.58
2019-02-14T13:38:53.249Z,9.57
2019-02-14T13:41:42.906Z,9.67
2019-02-14T13:44:32.394Z,9.70
2019-02-14T13:47:21.678Z,9.68
2019-02-14T13:50:11.819Z,9.63
2019-02-14T13:53:01.068Z,9.60
2019-02-14T13:55:50.292Z,9.55
2019-02-14T13:58:39.605Z,9.48
2019-02-14T14:01:29.447Z,9.45
2019-02-14T14:04:18.912Z,9.45
2019-02-14T14:07:08.292Z,9.53
2019-02-14T14:09:58.032Z,9.54
2019-02-14T14:12:47.305Z,9.44
2019-02-14T14:15:36.581Z,9.34
2019-02-14T14:18:26.219Z,9.37
2019-02-14T14:21:15.598Z,9.44
2019-02-14T14:24:04.888Z,9.40
2019-02-14T14:26:54.805Z,9.48
2019-02-14T14:29:44.401Z,9.43
2019-02-14T14:32:34.074Z,9.38
2019-02-14T14:35:23.470Z,9.30
2019-02-14T14:38:12.970Z,9.34
2019-02-14T14:41:02.702Z,9.45
2019-02-14T14:44:05.437Z,9.30
2019-02-14T14:47:03.989Z,9.13
2019-02-14T14:49:53.430Z,9.15
2019-02-14T14:52:42.930Z,9.08
2019-02-14T14:55:32.609Z,8.95
2019-02-14T14:58:22.187Z,8.92
2019-02-14T15:01:12.369Z,8.74
2019-02-14T15:04:01.803Z,8.65
2019-02-14T15:06:51.251Z,8.64
2019-02-14T15:09:40.756Z,8.57
2019-02-14T15:12:30.135Z,8.64
2019-02-14T15:15:19.799Z,8.52
2019-02-14T15:18:09.303Z,8.45
2019-02-14T15:20:58.658Z,8.35
2019-02-14T15:23:48.446Z,8.34
2019-02-14T15:26:38.045Z,8.24
2019-02-14T15:29:27.327Z,8.25
2019-02-14T15:32:16.544Z,8.15
2019-02-14T15:35:05.935Z,8.06
2019-02-14T15:37:55.546Z,7.97
2019-02-14T15:40:45.178Z,7.87
2019-02-14T15:43:34.642Z,7.77
2019-02-14T15:46:24.123Z,7.69
2019-02-14T15:49:13.372Z,7.60
2019-02-14T15:52:05.381Z,7.51
2019-02-14T15:54:55.610Z,7.50
2019-02-14T15:57:44.881Z,7.43
2019-02-14T16:00:35.124Z,7.41
2019-02-14T16:03:25.855Z,7.46
2019-02-14T16:06:15.194Z,7.35
2019-02-14T16:09:05.757Z,7.18
2019-02-14T16:11:55.992Z,7.02
2019-02-14T16:14:46.256Z,6.88
2019-02-14T16:17:37.390Z,6.80
2019-02-14T16:20:26.905Z,6.70
2019-02-14T16:23:16.304Z,6.64
2019-02-14T16:26:05.808Z,6.62
2019-02-14T16:28:55.337Z,6.48
2019-02-14T16:31:45.075Z,6.37
2019-02-14T16:34:34.826Z,6.30
2019-02-14T16:37:24.338Z,6.33
2019-02-14T16:40:13.701Z,6.31
2019-02-14T16:43:03.635Z,6.30
2019-02-14T16:45:53.272Z,6.32
2019-02-14T16:48:42.777Z,6.18
2019-02-14T16:51:32.479Z,6.08
2019-02-14T16:54:22.044Z,5.98
2019-02-14T16:57:11.366Z,5.96
2019-02-14T17:00:00.863Z,6.02
2019-02-14T17:02:50.441Z,5.91
2019-02-14T17:05:40.016Z,5.96
2019-02-14T17:08:29.738Z,5.85
2019-02-14T17:11:19.523Z,5.71
2019-02-14T17:14:08.992Z,5.61
2019-02-14T17:16:58.360Z,5.47
2019-02-14T17:19:47.687Z,5.34
2019-02-14T17:22:37.023Z,5.26
2019-02-14T17:25:26.602Z,5.24
2019-02-14T17:28:16.381Z,5.24
2019-02-14T17:31:06.013Z,5.19
2019-02-14T17:33:56.496Z,5.00
2019-02-14T17:36:45.828Z,4.80
2019-02-14T17:39:35.639Z,4.67
2019-02-14T17:42:27.327Z,4.57
2019-02-14T17:45:16.976Z,4.46
2019-02-14T17:48:06.542Z,4.35
2019-02-14T17:50:55.998Z,4.27
2019-02-14T17:53:45.601Z,4.19
2019-02-14T17:56:35.173Z,4.11
2019-02-14T17:59:24.854Z,4.03
2019-02-14T18:02:14.995Z,3.94
2019-02-14T18:05:04.557Z,3.87
2019-02-14T18:07:54.156Z,3.86
2019-02-14T18:10:43.861Z,3.82
2019-02-14T18:13:33.549Z,3.79
2019-02-14T18:16:23.091Z,3.72
2019-02-14T18:19:13.220Z,3.64
2019-02-14T18:22:02.932Z,3.40
2019-02-14T18:24:52.339Z,3.50
2019-02-14T18:27:42.008Z,3.45
2019-02-14T18:30:31.582Z,3.39
2019-02-14T18:33:21.078Z,3.33
2019-02-14T18:36:10.968Z,3.29
2019-02-14T18:39:00.635Z,3.20
2019-02-14T18:41:50.050Z,3.13
2019-02-14T18:44:39.711Z,3.06
2019-02-14T18:47:29.026Z,2.99
2019-02-14T18:50:18.599Z,2.92
2019-02-14T18:53:08.537Z,2.86
2019-02-14T18:55:58.203Z,2.80
2019-02-14T18:58:47.688Z,2.73
2019-02-14T19:01:37.323Z,2.68
2019-02-14T19:04:27.149Z,2.63
2019-02-14T19:07:16.706Z,2.57
2019-02-14T19:10:06.548Z,2.50
2019-02-14T19:12:56.301Z,2.44
2019-02-14T19:15:45.728Z,2.36
2019-02-14T19:18:35.026Z,2.30
2019-02-14T19:21:24.630Z,2.25
2019-02-14T19:24:14.129Z,2.24
2019-02-14T19:27:03.340Z,2.22
2019-02-14T19:29:53.129Z,2.22
2019-02-14T19:32:42.767Z,2.21
2019-02-14T19:35:32.003Z,2.19
2019-02-14T19:38:21.623Z,2.17
2019-02-14T19:41:11.144Z,2.13
2019-02-14T19:44:00.797Z,2.03
2019-02-14T19:46:50.213Z,2.01
2019-02-14T19:49:39.698Z,1.98
2019-02-14T19:52:29.439Z,1.93
2019-02-14T19:55:19.192Z,1.91
2019-02-14T19:58:08.503Z,1.90
2019-02-14T20:00:58.173Z,1.90
2019-02-14T20:03:47.734Z,1.89
2019-02-14T20:06:37.426Z,1.88
2019-02-14T20:09:28.567Z,1.87
2019-02-14T20:12:18.515Z,1.85
2019-02-14T20:15:10.741Z,1.82
2019-02-14T20:18:00.342Z,1.80
2019-02-14T20:20:49.988Z,1.74
2019-02-14T20:23:39.565Z,1.66
2019-02-14T20:26:28.769Z,1.57
2019-02-14T20:29:18.129Z,1.53
2019-02-14T20:32:07.615Z,1.47
2019-02-14T20:34:56.999Z,1.44
2019-02-14T20:37:47.952Z,1.46
2019-02-14T20:40:37.560Z,1.46
2019-02-14T20:43:27.096Z,1.44
2019-02-14T20:46:16.453Z,1.47
2019-02-14T20:49:06.151Z,1.50
2019-02-14T20:51:55.816Z,1.51
2019-02-14T20:54:45.285Z,1.50
2019-02-14T20:57:34.743Z,1.50
2019-02-14T21:00:34.280Z,1.49
2019-02-14T21:03:23.559Z,1.46
2019-02-14T21:06:13.319Z,1.41
2019-02-14T21:09:03.512Z,1.34
2019-02-14T21:11:54.997Z,1.26
2019-02-14T21:14:43.759Z,1.15
2019-02-14T21:17:33.237Z,1.10
2019-02-14T21:20:22.619Z,1.03
2019-02-14T21:23:13.702Z,0.99
2019-02-14T21:26:03.002Z,0.91
2019-02-14T21:28:52.512Z,0.82
2019-02-14T21:31:41.923Z,0.75
2019-02-14T21:34:31.417Z,0.72
2019-02-14T21:37:20.973Z,0.70
2019-02-14T21:40:11.975Z,0.78
2019-02-14T21:43:01.579Z,0.89
2019-02-14T21:45:51.053Z,0.94
2019-02-14T21:48:40.688Z,1.00
2019-02-14T21:51:30.097Z,1.08
2019-02-14T21:54:19.351Z,1.11
2019-02-14T21:57:09.185Z,1.12
2019-02-14T21:59:58.801Z,1.12
2019-02-14T22:02:48.871Z,1.09
2019-02-14T22:05:38.423Z,1.07
2019-02-14T22:08:27.749Z,1.07
2019-02-14T22:11:17.455Z,1.05
2019-02-14T22:14:07.087Z,1.07
2019-02-14T22:16:56.528Z,1.11
2019-02-14T22:19:46.080Z,1.12
2019-02-14T22:22:35.376Z,1.16
2019-02-14T22:25:24.945Z,1.20
2019-02-14T22:28:14.569Z,1.21
2019-02-14T22:31:04.222Z,1.26
2019-02-14T22:33:53.543Z,1.27
2019-02-14T22:36:42.842Z,1.31
2019-02-14T22:39:32.404Z,1.37
2019-02-14T22:42:22.030Z,1.40
2019-02-14T22:45:13.573Z,1.44
2019-02-14T22:48:03.203Z,1.30
2019-02-14T22:50:53.026Z,1.48
2019-02-14T22:53:42.720Z,1.49
2019-02-14T22:56:32.259Z,1.24
2019-02-14T22:59:21.545Z,1.51
2019-02-14T23:02:10.825Z,1.52
2019-02-14T23:05:00.400Z,1.51
2019-02-14T23:07:50.105Z,1.51
2019-02-14T23:10:48.342Z,1.53
2019-02-14T23:13:37.918Z,1.54
2019-02-14T23:16:27.232Z,1.53
2019-02-14T23:19:16.636Z,1.49
2019-02-14T23:22:06.035Z,1.41
2019-02-14T23:24:56.967Z,1.40
2019-02-14T23:27:46.487Z,1.39
2019-02-14T23:30:42.168Z,1.41
2019-02-14T23:33:31.760Z,1.42
2019-02-14T23:36:21.224Z,1.44
2019-02-14T23:39:10.759Z,1.41
2019-02-14T23:42:00.018Z,1.37
2019-02-14T23:44:49.650Z,1.34
2019-02-14T23:47:40.071Z,1.33
2019-02-14T23:50:29.434Z,1.29
2019-02-14T23:53:19.046Z,1.30
2019-02-14T23:56:08.277Z,1.29
2019-02-14T23:58:57.438Z,1.29
